sensor_id;sensor_type;location;lat;lon;timestamp;P1;durP1;ratioP1;P2;durP2;ratioP2
57025;SDS011;43961;52.940;6.834;2023-01-28T00:01:50;24.65;;;20.10;;
57025;SDS011;43961;52.940;6.834;2023-01-28T00:04:15;24.17;;;19.05;;
57025;SDS011;43961;52.940;6.834;2023-01-28T00:06:42;25.95;;;19.92;;
57025;SDS011;43961;52.940;6.834;2023-01-28T00:09:08;27.70;;;21.42;;
57025;SDS011;43961;52.940;6.834;2023-01-28T00:11:34;25.70;;;20.85;;
57025;SDS011;43961;52.940;6.834;2023-01-28T00:13:59;24.27;;;19.30;;
57025;SDS011;43961;52.940;6.834;2023-01-28T00:16:25;26.17;;;18.35;;
57025;SDS011;43961;52.940;6.834;2023-01-28T00:18:52;20.58;;;17.98;;
57025;SDS011;43961;52.940;6.834;2023-01-28T00:21:18;24.88;;;19.65;;
57025;SDS011;43961;52.940;6.834;2023-01-28T00:23:47;22.35;;;19.52;;
57025;SDS011;43961;52.940;6.834;2023-01-28T00:26:20;22.98;;;18.90;;
57025;SDS011;43961;52.940;6.834;2023-01-28T00:28:47;24.58;;;19.15;;
57025;SDS011;43961;52.940;6.834;2023-01-28T00:31:23;23.52;;;19.40;;
57025;SDS011;43961;52.940;6.834;2023-01-28T00:33:51;27.67;;;19.70;;
57025;SDS011;43961;52.940;6.834;2023-01-28T00:36:18;24.02;;;18.98;;
57025;SDS011;43961;52.940;6.834;2023-01-28T00:38:49;19.88;;;17.48;;
57025;SDS011;43961;52.940;6.834;2023-01-28T00:41:19;22.08;;;17.27;;
57025;SDS011;43961;52.940;6.834;2023-01-28T00:43:46;18.25;;;16.08;;
57025;SDS011;43961;52.940;6.834;2023-01-28T00:46:13;17.75;;;15.85;;
57025;SDS011;43961;52.940;6.834;2023-01-28T00:48:40;18.85;;;16.90;;
57025;SDS011;43961;52.940;6.834;2023-01-28T00:51:07;17.02;;;15.32;;
57025;SDS011;43961;52.940;6.834;2023-01-28T00:53:35;17.52;;;15.02;;
57025;SDS011;43961;52.940;6.834;2023-01-28T00:56:04;18.38;;;15.93;;
57025;SDS011;43961;52.940;6.834;2023-01-28T00:58:30;16.42;;;14.75;;
57025;SDS011;43961;52.940;6.834;2023-01-28T01:01:07;19.70;;;16.35;;
57025;SDS011;43961;52.940;6.834;2023-01-28T01:03:34;16.52;;;14.82;;
57025;SDS011;43961;52.940;6.834;2023-01-28T01:06:00;19.17;;;16.25;;
57025;SDS011;43961;52.940;6.834;2023-01-28T01:08:26;18.92;;;15.90;;
57025;SDS011;43961;52.940;6.834;2023-01-28T01:10:59;20.65;;;17.85;;
57025;SDS011;43961;52.940;6.834;2023-01-28T01:13:29;19.25;;;17.25;;
57025;SDS011;43961;52.940;6.834;2023-01-28T01:16:00;21.20;;;17.23;;
57025;SDS011;43961;52.940;6.834;2023-01-28T01:18:28;20.73;;;17.40;;
57025;SDS011;43961;52.940;6.834;2023-01-28T01:20:53;18.98;;;16.35;;
57025;SDS011;43961;52.940;6.834;2023-01-28T01:23:24;23.08;;;17.67;;
57025;SDS011;43961;52.940;6.834;2023-01-28T01:25:50;8.98;;;5.28;;
57025;SDS011;43961;52.940;6.834;2023-01-28T01:28:16;21.55;;;15.43;;
57025;SDS011;43961;52.940;6.834;2023-01-28T01:30:42;16.67;;;14.70;;
57025;SDS011;43961;52.940;6.834;2023-01-28T01:33:07;19.20;;;16.15;;
57025;SDS011;43961;52.940;6.834;2023-01-28T01:35:33;16.52;;;14.32;;
57025;SDS011;43961;52.940;6.834;2023-01-28T01:37:59;17.92;;;14.15;;
57025;SDS011;43961;52.940;6.834;2023-01-28T01:40:24;18.83;;;14.30;;
57025;SDS011;43961;52.940;6.834;2023-01-28T01:42:53;18.58;;;15.25;;
57025;SDS011;43961;52.940;6.834;2023-01-28T01:45:19;19.80;;;14.05;;
57025;SDS011;43961;52.940;6.834;2023-01-28T01:47:55;17.13;;;13.98;;
57025;SDS011;43961;52.940;6.834;2023-01-28T01:50:28;18.23;;;14.20;;
57025;SDS011;43961;52.940;6.834;2023-01-28T01:52:59;15.60;;;13.77;;
57025;SDS011;43961;52.940;6.834;2023-01-28T01:55:32;12.30;;;8.10;;
57025;SDS011;43961;52.940;6.834;2023-01-28T01:58:01;17.52;;;14.50;;
57025;SDS011;43961;52.940;6.834;2023-01-28T02:00:32;20.13;;;14.45;;
57025;SDS011;43961;52.940;6.834;2023-01-28T02:02:57;20.67;;;15.30;;
57025;SDS011;43961;52.940;6.834;2023-01-28T02:05:23;19.80;;;14.18;;
57025;SDS011;43961;52.940;6.834;2023-01-28T02:07:51;20.13;;;15.98;;
57025;SDS011;43961;52.940;6.834;2023-01-28T02:10:20;9.95;;;5.63;;
57025;SDS011;43961;52.940;6.834;2023-01-28T02:12:54;17.95;;;14.85;;
57025;SDS011;43961;52.940;6.834;2023-01-28T02:15:22;16.90;;;12.80;;
57025;SDS011;43961;52.940;6.834;2023-01-28T02:17:49;16.67;;;13.73;;
57025;SDS011;43961;52.940;6.834;2023-01-28T02:20:24;16.98;;;13.85;;
57025;SDS011;43961;52.940;6.834;2023-01-28T02:36:11;18.58;;;13.90;;
57025;SDS011;43961;52.940;6.834;2023-01-28T02:39:00;16.95;;;14.48;;
57025;SDS011;43961;52.940;6.834;2023-01-28T02:41:34;16.23;;;13.98;;
57025;SDS011;43961;52.940;6.834;2023-01-28T02:44:05;17.02;;;12.45;;
57025;SDS011;43961;52.940;6.834;2023-01-28T02:46:34;17.73;;;14.20;;
57025;SDS011;43961;52.940;6.834;2023-01-28T02:57:14;16.50;;;13.45;;
57025;SDS011;43961;52.940;6.834;2023-01-28T03:02:28;17.42;;;12.98;;
57025;SDS011;43961;52.940;6.834;2023-01-28T03:07:26;17.63;;;13.23;;
57025;SDS011;43961;52.940;6.834;2023-01-28T03:09:55;15.30;;;11.93;;
57025;SDS011;43961;52.940;6.834;2023-01-28T03:12:24;15.15;;;12.73;;
57025;SDS011;43961;52.940;6.834;2023-01-28T03:15:18;16.15;;;12.75;;
57025;SDS011;43961;52.940;6.834;2023-01-28T03:23:47;13.40;;;10.98;;
57025;SDS011;43961;52.940;6.834;2023-01-28T03:27:25;16.27;;;11.85;;
57025;SDS011;43961;52.940;6.834;2023-01-28T03:29:53;16.38;;;13.27;;
57025;SDS011;43961;52.940;6.834;2023-01-28T03:32:41;15.10;;;11.70;;
57025;SDS011;43961;52.940;6.834;2023-01-28T03:35:27;12.15;;;5.20;;
57025;SDS011;43961;52.940;6.834;2023-01-28T03:40:57;16.98;;;12.88;;
57025;SDS011;43961;52.940;6.834;2023-01-28T03:43:27;16.73;;;13.00;;
57025;SDS011;43961;52.940;6.834;2023-01-28T03:45:53;14.30;;;11.85;;
57025;SDS011;43961;52.940;6.834;2023-01-28T03:48:20;17.45;;;13.65;;
57025;SDS011;43961;52.940;6.834;2023-01-28T03:50:48;19.75;;;14.30;;
57025;SDS011;43961;52.940;6.834;2023-01-28T03:53:15;21.08;;;15.45;;
57025;SDS011;43961;52.940;6.834;2023-01-28T03:55:42;19.13;;;14.07;;
57025;SDS011;43961;52.940;6.834;2023-01-28T03:58:09;11.75;;;5.80;;
57025;SDS011;43961;52.940;6.834;2023-01-28T04:00:36;18.77;;;15.43;;
57025;SDS011;43961;52.940;6.834;2023-01-28T04:03:06;20.10;;;14.93;;
57025;SDS011;43961;52.940;6.834;2023-01-28T04:05:43;24.83;;;15.23;;
57025;SDS011;43961;52.940;6.834;2023-01-28T04:08:21;18.92;;;14.15;;
57025;SDS011;43961;52.940;6.834;2023-01-28T04:10:47;22.45;;;16.67;;
57025;SDS011;43961;52.940;6.834;2023-01-28T04:13:13;20.42;;;15.82;;
57025;SDS011;43961;52.940;6.834;2023-01-28T04:15:39;21.80;;;15.48;;
57025;SDS011;43961;52.940;6.834;2023-01-28T04:18:07;25.15;;;16.20;;
57025;SDS011;43961;52.940;6.834;2023-01-28T04:20:34;21.42;;;16.15;;
57025;SDS011;43961;52.940;6.834;2023-01-28T04:23:00;21.90;;;16.00;;
57025;SDS011;43961;52.940;6.834;2023-01-28T04:25:26;27.08;;;16.75;;
57025;SDS011;43961;52.940;6.834;2023-01-28T04:27:52;22.77;;;16.60;;
57025;SDS011;43961;52.940;6.834;2023-01-28T04:30:17;26.38;;;17.90;;
57025;SDS011;43961;52.940;6.834;2023-01-28T04:32:45;22.50;;;16.88;;
57025;SDS011;43961;52.940;6.834;2023-01-28T04:35:11;21.10;;;16.10;;
57025;SDS011;43961;52.940;6.834;2023-01-28T04:37:36;18.10;;;14.18;;
57025;SDS011;43961;52.940;6.834;2023-01-28T04:40:04;21.23;;;15.63;;
57025;SDS011;43961;52.940;6.834;2023-01-28T04:42:30;12.57;;;4.72;;
57025;SDS011;43961;52.940;6.834;2023-01-28T04:44:56;20.88;;;16.38;;
57025;SDS011;43961;52.940;6.834;2023-01-28T04:47:22;21.77;;;15.82;;
57025;SDS011;43961;52.940;6.834;2023-01-28T04:49:47;22.45;;;17.52;;
57025;SDS011;43961;52.940;6.834;2023-01-28T04:52:13;24.83;;;16.27;;
57025;SDS011;43961;52.940;6.834;2023-01-28T04:54:39;26.80;;;17.85;;
57025;SDS011;43961;52.940;6.834;2023-01-28T04:57:04;23.52;;;16.42;;
57025;SDS011;43961;52.940;6.834;2023-01-28T04:59:30;20.63;;;17.05;;
57025;SDS011;43961;52.940;6.834;2023-01-28T05:01:56;24.70;;;17.58;;
57025;SDS011;43961;52.940;6.834;2023-01-28T05:04:21;26.00;;;17.63;;
57025;SDS011;43961;52.940;6.834;2023-01-28T05:06:47;22.60;;;17.17;;
57025;SDS011;43961;52.940;6.834;2023-01-28T05:09:13;22.48;;;16.67;;
57025;SDS011;43961;52.940;6.834;2023-01-28T05:11:38;21.73;;;16.08;;
57025;SDS011;43961;52.940;6.834;2023-01-28T05:14:04;23.35;;;16.20;;
57025;SDS011;43961;52.940;6.834;2023-01-28T05:16:31;24.48;;;16.45;;
57025;SDS011;43961;52.940;6.834;2023-01-28T05:18:59;23.40;;;17.85;;
57025;SDS011;43961;52.940;6.834;2023-01-28T05:21:25;25.42;;;16.48;;
57025;SDS011;43961;52.940;6.834;2023-01-28T05:23:51;23.73;;;16.70;;
57025;SDS011;43961;52.940;6.834;2023-01-28T05:26:16;22.60;;;17.23;;
57025;SDS011;43961;52.940;6.834;2023-01-28T05:28:42;24.38;;;17.35;;
57025;SDS011;43961;52.940;6.834;2023-01-28T05:31:08;23.50;;;16.67;;
57025;SDS011;43961;52.940;6.834;2023-01-28T05:33:34;22.67;;;17.40;;
57025;SDS011;43961;52.940;6.834;2023-01-28T05:36:00;20.63;;;16.83;;
57025;SDS011;43961;52.940;6.834;2023-01-28T05:38:26;21.98;;;16.20;;
57025;SDS011;43961;52.940;6.834;2023-01-28T05:40:53;19.50;;;15.18;;
57025;SDS011;43961;52.940;6.834;2023-01-28T05:43:18;19.08;;;15.38;;
57025;SDS011;43961;52.940;6.834;2023-01-28T05:45:45;18.90;;;15.05;;
57025;SDS011;43961;52.940;6.834;2023-01-28T05:48:12;20.63;;;15.95;;
57025;SDS011;43961;52.940;6.834;2023-01-28T05:50:38;20.63;;;16.08;;
57025;SDS011;43961;52.940;6.834;2023-01-28T05:53:05;25.27;;;15.35;;
57025;SDS011;43961;52.940;6.834;2023-01-28T05:55:31;19.08;;;14.57;;
57025;SDS011;43961;52.940;6.834;2023-01-28T05:57:57;17.85;;;14.25;;
57025;SDS011;43961;52.940;6.834;2023-01-28T06:00:22;17.73;;;13.32;;
57025;SDS011;43961;52.940;6.834;2023-01-28T06:02:49;15.10;;;13.48;;
57025;SDS011;43961;52.940;6.834;2023-01-28T06:05:15;17.40;;;13.05;;
57025;SDS011;43961;52.940;6.834;2023-01-28T06:07:44;17.25;;;14.05;;
57025;SDS011;43961;52.940;6.834;2023-01-28T06:10:14;18.80;;;14.05;;
57025;SDS011;43961;52.940;6.834;2023-01-28T06:12:42;16.70;;;13.68;;
57025;SDS011;43961;52.940;6.834;2023-01-28T06:15:08;17.65;;;13.38;;
57025;SDS011;43961;52.940;6.834;2023-01-28T06:17:34;16.60;;;13.23;;
57025;SDS011;43961;52.940;6.834;2023-01-28T06:20:00;21.88;;;15.20;;
57025;SDS011;43961;52.940;6.834;2023-01-28T06:22:25;18.42;;;13.20;;
57025;SDS011;43961;52.940;6.834;2023-01-28T06:24:52;17.45;;;13.10;;
57025;SDS011;43961;52.940;6.834;2023-01-28T06:27:18;15.52;;;12.10;;
57025;SDS011;43961;52.940;6.834;2023-01-28T06:29:43;17.15;;;12.35;;
57025;SDS011;43961;52.940;6.834;2023-01-28T06:32:09;14.85;;;12.65;;
57025;SDS011;43961;52.940;6.834;2023-01-28T06:34:35;9.52;;;5.40;;
57025;SDS011;43961;52.940;6.834;2023-01-28T06:37:00;16.85;;;12.15;;
57025;SDS011;43961;52.940;6.834;2023-01-28T06:39:28;20.85;;;14.15;;
57025;SDS011;43961;52.940;6.834;2023-01-28T06:41:56;17.10;;;13.32;;
57025;SDS011;43961;52.940;6.834;2023-01-28T06:44:23;14.77;;;12.77;;
57025;SDS011;43961;52.940;6.834;2023-01-28T06:46:48;15.63;;;12.63;;
57025;SDS011;43961;52.940;6.834;2023-01-28T06:49:14;16.23;;;12.13;;
57025;SDS011;43961;52.940;6.834;2023-01-28T06:51:40;15.02;;;12.57;;
57025;SDS011;43961;52.940;6.834;2023-01-28T06:54:05;20.15;;;12.80;;
57025;SDS011;43961;52.940;6.834;2023-01-28T06:56:31;16.70;;;12.70;;
57025;SDS011;43961;52.940;6.834;2023-01-28T06:58:57;15.55;;;13.13;;
57025;SDS011;43961;52.940;6.834;2023-01-28T07:01:24;17.92;;;12.70;;
57025;SDS011;43961;52.940;6.834;2023-01-28T07:03:49;17.38;;;13.57;;
57025;SDS011;43961;52.940;6.834;2023-01-28T07:06:15;16.55;;;13.90;;
57025;SDS011;43961;52.940;6.834;2023-01-28T07:08:41;17.67;;;14.55;;
57025;SDS011;43961;52.940;6.834;2023-01-28T07:11:07;16.80;;;13.80;;
57025;SDS011;43961;52.940;6.834;2023-01-28T07:13:32;17.13;;;13.68;;
57025;SDS011;43961;52.940;6.834;2023-01-28T07:15:59;17.30;;;14.60;;
57025;SDS011;43961;52.940;6.834;2023-01-28T07:18:24;18.15;;;14.18;;
57025;SDS011;43961;52.940;6.834;2023-01-28T07:20:51;19.85;;;15.45;;
57025;SDS011;43961;52.940;6.834;2023-01-28T07:23:17;21.27;;;16.23;;
57025;SDS011;43961;52.940;6.834;2023-01-28T07:25:43;18.83;;;15.40;;
57025;SDS011;43961;52.940;6.834;2023-01-28T07:28:09;20.95;;;15.43;;
57025;SDS011;43961;52.940;6.834;2023-01-28T07:30:36;17.55;;;15.55;;
57025;SDS011;43961;52.940;6.834;2023-01-28T07:33:01;19.88;;;15.63;;
57025;SDS011;43961;52.940;6.834;2023-01-28T07:35:27;20.90;;;16.30;;
57025;SDS011;43961;52.940;6.834;2023-01-28T07:37:58;24.42;;;15.07;;
57025;SDS011;43961;52.940;6.834;2023-01-28T07:40:25;19.75;;;16.90;;
57025;SDS011;43961;52.940;6.834;2023-01-28T07:42:52;20.55;;;16.27;;
57025;SDS011;43961;52.940;6.834;2023-01-28T07:45:19;23.42;;;16.83;;
57025;SDS011;43961;52.940;6.834;2023-01-28T07:47:58;22.38;;;17.50;;
57025;SDS011;43961;52.940;6.834;2023-01-28T07:50:26;19.55;;;16.85;;
57025;SDS011;43961;52.940;6.834;2023-01-28T07:52:54;18.88;;;16.33;;
57025;SDS011;43961;52.940;6.834;2023-01-28T07:55:21;17.10;;;15.33;;
57025;SDS011;43961;52.940;6.834;2023-01-28T07:57:51;21.45;;;18.25;;
57025;SDS011;43961;52.940;6.834;2023-01-28T08:00:18;19.80;;;16.58;;
57025;SDS011;43961;52.940;6.834;2023-01-28T08:02:45;23.27;;;18.23;;
57025;SDS011;43961;52.940;6.834;2023-01-28T08:05:15;22.55;;;16.77;;
57025;SDS011;43961;52.940;6.834;2023-01-28T08:07:42;23.05;;;17.80;;
57025;SDS011;43961;52.940;6.834;2023-01-28T08:10:09;23.52;;;17.27;;
57025;SDS011;43961;52.940;6.834;2023-01-28T08:12:36;21.30;;;17.83;;
57025;SDS011;43961;52.940;6.834;2023-01-28T08:15:02;20.30;;;15.82;;
57025;SDS011;43961;52.940;6.834;2023-01-28T08:17:30;22.33;;;17.07;;
57025;SDS011;43961;52.940;6.834;2023-01-28T08:19:56;19.95;;;16.30;;
57025;SDS011;43961;52.940;6.834;2023-01-28T08:22:25;26.80;;;17.58;;
57025;SDS011;43961;52.940;6.834;2023-01-28T08:24:51;20.17;;;16.08;;
57025;SDS011;43961;52.940;6.834;2023-01-28T08:27:16;20.10;;;16.58;;
57025;SDS011;43961;52.940;6.834;2023-01-28T08:29:42;14.63;;;6.72;;
57025;SDS011;43961;52.940;6.834;2023-01-28T08:32:08;23.92;;;18.17;;
57025;SDS011;43961;52.940;6.834;2023-01-28T08:34:34;23.90;;;19.02;;
57025;SDS011;43961;52.940;6.834;2023-01-28T08:37:00;23.25;;;18.85;;
57025;SDS011;43961;52.940;6.834;2023-01-28T08:39:25;24.73;;;18.08;;
57025;SDS011;43961;52.940;6.834;2023-01-28T08:41:51;29.83;;;19.65;;
57025;SDS011;43961;52.940;6.834;2023-01-28T08:44:17;20.13;;;16.90;;
57025;SDS011;43961;52.940;6.834;2023-01-28T08:46:42;20.55;;;16.90;;
57025;SDS011;43961;52.940;6.834;2023-01-28T08:49:08;21.58;;;18.38;;
57025;SDS011;43961;52.940;6.834;2023-01-28T08:51:34;23.92;;;17.58;;
57025;SDS011;43961;52.940;6.834;2023-01-28T08:53:59;25.60;;;18.55;;
57025;SDS011;43961;52.940;6.834;2023-01-28T08:56:26;30.73;;;18.33;;
57025;SDS011;43961;52.940;6.834;2023-01-28T08:58:51;32.30;;;20.63;;
57025;SDS011;43961;52.940;6.834;2023-01-28T09:01:17;32.75;;;20.55;;
57025;SDS011;43961;52.940;6.834;2023-01-28T09:03:43;24.55;;;18.80;;
57025;SDS011;43961;52.940;6.834;2023-01-28T09:06:08;21.95;;;17.38;;
57025;SDS011;43961;52.940;6.834;2023-01-28T09:08:34;25.30;;;18.70;;
57025;SDS011;43961;52.940;6.834;2023-01-28T09:11:00;23.83;;;17.08;;
57025;SDS011;43961;52.940;6.834;2023-01-28T09:13:25;21.08;;;16.35;;
57025;SDS011;43961;52.940;6.834;2023-01-28T09:15:52;24.30;;;18.48;;
57025;SDS011;43961;52.940;6.834;2023-01-28T09:18:18;25.20;;;15.73;;
57025;SDS011;43961;52.940;6.834;2023-01-28T09:20:44;23.08;;;17.20;;
57025;SDS011;43961;52.940;6.834;2023-01-28T09:23:10;25.60;;;16.90;;
57025;SDS011;43961;52.940;6.834;2023-01-28T09:25:36;20.92;;;15.95;;
57025;SDS011;43961;52.940;6.834;2023-01-28T09:28:02;18.08;;;14.93;;
57025;SDS011;43961;52.940;6.834;2023-01-28T09:30:28;17.98;;;14.32;;
57025;SDS011;43961;52.940;6.834;2023-01-28T09:32:54;18.63;;;13.30;;
57025;SDS011;43961;52.940;6.834;2023-01-28T09:35:22;18.77;;;14.95;;
57025;SDS011;43961;52.940;6.834;2023-01-28T09:37:48;16.52;;;13.20;;
57025;SDS011;43961;52.940;6.834;2023-01-28T09:40:19;17.25;;;13.52;;
57025;SDS011;43961;52.940;6.834;2023-01-28T09:45:24;19.20;;;14.52;;
57025;SDS011;43961;52.940;6.834;2023-01-28T09:48:15;16.02;;;13.23;;
57025;SDS011;43961;52.940;6.834;2023-01-28T09:50:51;18.02;;;13.90;;
57025;SDS011;43961;52.940;6.834;2023-01-28T09:53:22;16.00;;;11.88;;
57025;SDS011;43961;52.940;6.834;2023-01-28T09:55:50;15.25;;;12.35;;
57025;SDS011;43961;52.940;6.834;2023-01-28T09:58:21;15.95;;;14.18;;
57025;SDS011;43961;52.940;6.834;2023-01-28T10:17:15;16.20;;;12.25;;
57025;SDS011;43961;52.940;6.834;2023-01-28T10:19:52;15.57;;;12.13;;
57025;SDS011;43961;52.940;6.834;2023-01-28T10:22:27;14.77;;;12.50;;
57025;SDS011;43961;52.940;6.834;2023-01-28T10:24:57;14.02;;;11.90;;
57025;SDS011;43961;52.940;6.834;2023-01-28T10:27:31;14.30;;;11.52;;
57025;SDS011;43961;52.940;6.834;2023-01-28T10:29:59;17.58;;;12.63;;
57025;SDS011;43961;52.940;6.834;2023-01-28T10:32:34;19.40;;;13.65;;
57025;SDS011;43961;52.940;6.834;2023-01-28T10:35:07;17.35;;;13.13;;
57025;SDS011;43961;52.940;6.834;2023-01-28T10:37:33;21.98;;;14.13;;
57025;SDS011;43961;52.940;6.834;2023-01-28T10:40:02;14.45;;;11.50;;
57025;SDS011;43961;52.940;6.834;2023-01-28T10:42:29;17.00;;;12.75;;
57025;SDS011;43961;52.940;6.834;2023-01-28T10:44:58;19.40;;;12.52;;
57025;SDS011;43961;52.940;6.834;2023-01-28T10:47:43;13.55;;;11.15;;
57025;SDS011;43961;52.940;6.834;2023-01-28T10:50:30;16.83;;;12.45;;
57025;SDS011;43961;52.940;6.834;2023-01-28T10:52:57;14.18;;;11.23;;
57025;SDS011;43961;52.940;6.834;2023-01-28T10:55:33;13.77;;;11.45;;
57025;SDS011;43961;52.940;6.834;2023-01-28T10:58:21;14.80;;;11.57;;
57025;SDS011;43961;52.940;6.834;2023-01-28T11:00:56;14.05;;;10.75;;
57025;SDS011;43961;52.940;6.834;2023-01-28T11:03:25;12.60;;;9.40;;
57025;SDS011;43961;52.940;6.834;2023-01-28T11:05:54;11.98;;;9.60;;
57025;SDS011;43961;52.940;6.834;2023-01-28T11:08:24;11.27;;;9.80;;
57025;SDS011;43961;52.940;6.834;2023-01-28T11:10:52;15.35;;;10.15;;
57025;SDS011;43961;52.940;6.834;2023-01-28T11:13:21;12.80;;;10.52;;
57025;SDS011;43961;52.940;6.834;2023-01-28T11:18:26;15.13;;;11.73;;
57025;SDS011;43961;52.940;6.834;2023-01-28T11:20:56;12.73;;;11.02;;
57025;SDS011;43961;52.940;6.834;2023-01-28T11:23:31;13.23;;;10.70;;
57025;SDS011;43961;52.940;6.834;2023-01-28T11:26:02;10.73;;;9.43;;
57025;SDS011;43961;52.940;6.834;2023-01-28T11:28:48;14.63;;;10.57;;
57025;SDS011;43961;52.940;6.834;2023-01-28T11:31:16;12.88;;;9.63;;
57025;SDS011;43961;52.940;6.834;2023-01-28T11:33:46;12.70;;;10.77;;
57025;SDS011;43961;52.940;6.834;2023-01-28T11:36:25;12.65;;;10.38;;
57025;SDS011;43961;52.940;6.834;2023-01-28T11:38:53;12.02;;;10.27;;
57025;SDS011;43961;52.940;6.834;2023-01-28T11:41:24;11.43;;;8.57;;
57025;SDS011;43961;52.940;6.834;2023-01-28T11:43:54;12.52;;;8.77;;
57025;SDS011;43961;52.940;6.834;2023-01-28T11:46:34;13.85;;;10.35;;
57025;SDS011;43961;52.940;6.834;2023-01-28T11:49:13;15.20;;;9.40;;
57025;SDS011;43961;52.940;6.834;2023-01-28T12:00:17;9.98;;;8.98;;
57025;SDS011;43961;52.940;6.834;2023-01-28T12:08:37;10.52;;;8.82;;
57025;SDS011;43961;52.940;6.834;2023-01-28T12:11:29;13.60;;;9.77;;
57025;SDS011;43961;52.940;6.834;2023-01-28T12:22:34;11.75;;;9.70;;
57025;SDS011;43961;52.940;6.834;2023-01-28T12:25:06;14.35;;;10.10;;
57025;SDS011;43961;52.940;6.834;2023-01-28T12:41:42;11.23;;;9.32;;
57025;SDS011;43961;52.940;6.834;2023-01-28T12:44:19;13.70;;;11.07;;
57025;SDS011;43961;52.940;6.834;2023-01-28T12:46:50;14.25;;;10.05;;
57025;SDS011;43961;52.940;6.834;2023-01-28T12:49:35;14.32;;;10.52;;
57025;SDS011;43961;52.940;6.834;2023-01-28T12:57:40;12.48;;;9.63;;
57025;SDS011;43961;52.940;6.834;2023-01-28T13:03:15;11.77;;;9.90;;
57025;SDS011;43961;52.940;6.834;2023-01-28T13:06:07;12.70;;;10.32;;
57025;SDS011;43961;52.940;6.834;2023-01-28T13:08:36;11.43;;;9.77;;
57025;SDS011;43961;52.940;6.834;2023-01-28T13:11:02;12.02;;;10.18;;
57025;SDS011;43961;52.940;6.834;2023-01-28T13:13:33;14.13;;;10.65;;
57025;SDS011;43961;52.940;6.834;2023-01-28T13:16:00;15.63;;;10.75;;
57025;SDS011;43961;52.940;6.834;2023-01-28T13:21:08;13.35;;;10.48;;
57025;SDS011;43961;52.940;6.834;2023-01-28T13:23:40;11.40;;;9.13;;
57025;SDS011;43961;52.940;6.834;2023-01-28T13:31:09;11.95;;;10.05;;
57025;SDS011;43961;52.940;6.834;2023-01-28T13:33:42;15.85;;;11.57;;
57025;SDS011;43961;52.940;6.834;2023-01-28T13:36:24;17.88;;;13.75;;
57025;SDS011;43961;52.940;6.834;2023-01-28T13:41:40;19.90;;;12.45;;
57025;SDS011;43961;52.940;6.834;2023-01-28T13:44:17;19.55;;;13.85;;
57025;SDS011;43961;52.940;6.834;2023-01-28T13:46:50;18.70;;;13.63;;
57025;SDS011;43961;52.940;6.834;2023-01-28T13:49:36;17.60;;;13.95;;
57025;SDS011;43961;52.940;6.834;2023-01-28T13:52:25;21.00;;;14.88;;
57025;SDS011;43961;52.940;6.834;2023-01-28T13:57:42;18.83;;;13.15;;
57025;SDS011;43961;52.940;6.834;2023-01-28T14:14:52;23.73;;;14.50;;
57025;SDS011;43961;52.940;6.834;2023-01-28T14:20:51;23.27;;;15.73;;
57025;SDS011;43961;52.940;6.834;2023-01-28T14:23:02;24.25;;;13.52;;
57025;SDS011;43961;52.940;6.834;2023-01-28T14:27:58;14.65;;;9.90;;
57025;SDS011;43961;52.940;6.834;2023-01-28T14:30:34;15.52;;;9.60;;
57025;SDS011;43961;52.940;6.834;2023-01-28T14:33:21;17.63;;;12.30;;
57025;SDS011;43961;52.940;6.834;2023-01-28T14:35:48;20.65;;;14.45;;
57025;SDS011;43961;52.940;6.834;2023-01-28T14:38:15;26.23;;;16.55;;
57025;SDS011;43961;52.940;6.834;2023-01-28T14:40:44;24.75;;;15.80;;
57025;SDS011;43961;52.940;6.834;2023-01-28T14:43:17;26.17;;;17.45;;
57025;SDS011;43961;52.940;6.834;2023-01-28T14:51:42;32.83;;;18.38;;
57025;SDS011;43961;52.940;6.834;2023-01-28T14:54:41;25.65;;;17.33;;
57025;SDS011;43961;52.940;6.834;2023-01-28T15:00:16;33.08;;;18.65;;
57025;SDS011;43961;52.940;6.834;2023-01-28T15:02:42;21.52;;;16.27;;
57025;SDS011;43961;52.940;6.834;2023-01-28T15:05:10;20.30;;;14.30;;
57025;SDS011;43961;52.940;6.834;2023-01-28T15:07:47;25.52;;;14.38;;
57025;SDS011;43961;52.940;6.834;2023-01-28T15:10:46;24.15;;;13.82;;
57025;SDS011;43961;52.940;6.834;2023-01-28T15:13:09;18.83;;;13.07;;
57025;SDS011;43961;52.940;6.834;2023-01-28T15:15:44;18.02;;;13.23;;
57025;SDS011;43961;52.940;6.834;2023-01-28T15:18:13;17.20;;;12.80;;
57025;SDS011;43961;52.940;6.834;2023-01-28T15:20:54;21.25;;;14.23;;
57025;SDS011;43961;52.940;6.834;2023-01-28T15:23:28;21.58;;;14.73;;
57025;SDS011;43961;52.940;6.834;2023-01-28T15:25:57;19.40;;;14.73;;
57025;SDS011;43961;52.940;6.834;2023-01-28T15:30:52;24.02;;;15.00;;
57025;SDS011;43961;52.940;6.834;2023-01-28T15:33:20;24.65;;;16.45;;
57025;SDS011;43961;52.940;6.834;2023-01-28T15:35:47;25.95;;;17.73;;
57025;SDS011;43961;52.940;6.834;2023-01-28T15:38:15;25.20;;;16.45;;
57025;SDS011;43961;52.940;6.834;2023-01-28T15:40:45;26.25;;;15.73;;
57025;SDS011;43961;52.940;6.834;2023-01-28T15:43:17;26.90;;;18.88;;
57025;SDS011;43961;52.940;6.834;2023-01-28T15:45:45;21.80;;;15.80;;
57025;SDS011;43961;52.940;6.834;2023-01-28T15:48:12;25.67;;;16.50;;
57025;SDS011;43961;52.940;6.834;2023-01-28T15:50:39;21.60;;;16.65;;
57025;SDS011;43961;52.940;6.834;2023-01-28T15:53:08;26.20;;;18.17;;
57025;SDS011;43961;52.940;6.834;2023-01-28T15:55:40;27.92;;;17.70;;
57025;SDS011;43961;52.940;6.834;2023-01-28T16:03:39;24.88;;;16.65;;
57025;SDS011;43961;52.940;6.834;2023-01-28T16:06:21;26.77;;;16.45;;
57025;SDS011;43961;52.940;6.834;2023-01-28T16:11:22;28.90;;;16.30;;
57025;SDS011;43961;52.940;6.834;2023-01-28T16:13:52;26.45;;;16.98;;
57025;SDS011;43961;52.940;6.834;2023-01-28T16:16:34;23.58;;;17.30;;
57025;SDS011;43961;52.940;6.834;2023-01-28T16:19:03;30.63;;;18.30;;
57025;SDS011;43961;52.940;6.834;2023-01-28T16:21:53;19.50;;;15.15;;
57025;SDS011;43961;52.940;6.834;2023-01-28T16:29:26;25.08;;;16.98;;
57025;SDS011;43961;52.940;6.834;2023-01-28T16:31:53;27.55;;;19.52;;
57025;SDS011;43961;52.940;6.834;2023-01-28T16:34:19;26.20;;;19.33;;
57025;SDS011;43961;52.940;6.834;2023-01-28T16:36:45;38.38;;;21.20;;
57025;SDS011;43961;52.940;6.834;2023-01-28T16:39:11;30.65;;;20.65;;
57025;SDS011;43961;52.940;6.834;2023-01-28T16:41:40;27.77;;;19.60;;
57025;SDS011;43961;52.940;6.834;2023-01-28T16:44:11;29.08;;;18.80;;
57025;SDS011;43961;52.940;6.834;2023-01-28T16:46:41;36.47;;;20.58;;
57025;SDS011;43961;52.940;6.834;2023-01-28T16:49:07;32.28;;;19.98;;
57025;SDS011;43961;52.940;6.834;2023-01-28T16:51:35;29.15;;;19.13;;
57025;SDS011;43961;52.940;6.834;2023-01-28T16:56:28;30.67;;;20.27;;
57025;SDS011;43961;52.940;6.834;2023-01-28T16:58:55;37.13;;;20.70;;
57025;SDS011;43961;52.940;6.834;2023-01-28T17:01:21;39.58;;;21.85;;
57025;SDS011;43961;52.940;6.834;2023-01-28T17:03:46;34.42;;;22.60;;
57025;SDS011;43961;52.940;6.834;2023-01-28T17:06:16;29.42;;;19.98;;
57025;SDS011;43961;52.940;6.834;2023-01-28T17:08:42;31.48;;;21.73;;
57025;SDS011;43961;52.940;6.834;2023-01-28T17:11:09;36.72;;;23.08;;
57025;SDS011;43961;52.940;6.834;2023-01-28T17:13:35;35.28;;;24.13;;
57025;SDS011;43961;52.940;6.834;2023-01-28T17:16:01;38.65;;;22.95;;
57025;SDS011;43961;52.940;6.834;2023-01-28T17:18:28;36.92;;;25.67;;
57025;SDS011;43961;52.940;6.834;2023-01-28T17:20:54;43.70;;;24.75;;